Flight Track Log - Related Links

Times and Time Zones

All times are in EDT time to prevent confusion due to time zone crossing. See the PDT4526 flight status page for this flight to view local times or setup timezone preferences in your user account.

Time Position Orientation Groundspeed Altitude Reporting Facility
EDT Latitude Longitude Course Direction KTS MPH feet Rate Location/Type
Mon 01:18:36 PM 41.2000 -72.8833 360° North 146 168 1,000  Level New York TRACON
Mon 01:19:30 PM 41.2333 -72.8833 360° North 146 168 600 Descending New York TRACON
Mon 01:27:15 PM 40.4299 -72.8991 North  Level FlightAware Approximate
Mon 01:28:15 PM 40.3360 -73.0108 North  Level FlightAware Approximate
Mon 01:29:15 PM 40.2436 -73.1246 10° North  Level FlightAware Approximate
Mon 01:30:15 PM 40.2105 -73.2849 16° North  Level FlightAware Approximate
Mon 01:31:15 PM 40.0920 -73.3119 16° North  Level FlightAware Approximate
Mon 01:32:15 PM 40.0675 -73.4744 21° North  Level FlightAware Approximate
Mon 01:33:15 PM 40.0427 -73.6368 25° Northeast  Level FlightAware Approximate
Mon 01:34:15 PM 40.0177 -73.7991 29° Northeast  Level FlightAware Approximate
Mon 01:35:15 PM 39.9925 -73.9613 33° Northeast  Level FlightAware Approximate
Mon 01:36:15 PM 39.9670 -74.1234 36° Northeast  Level FlightAware Approximate
Mon 01:37:15 PM 39.9413 -74.2853 39° Northeast  Level FlightAware Approximate
Mon 01:38:15 PM 39.9155 -74.4472 42° Northeast  Level FlightAware Approximate
Mon 01:39:15 PM 39.9042 -74.5169 43° Northeast  Level FlightAware Approximate
Mon 01:40:15 PM 39.8929 -74.5866 43° Northeast  Level FlightAware Approximate
Mon 01:41:15 PM 39.8816 -74.6563 44° Northeast  Level FlightAware Approximate
Mon 01:42:15 PM 39.8703 -74.7260 45° Northeast  Level FlightAware Approximate
Mon 01:43:15 PM 39.8588 -74.7956 46° Northeast  Level FlightAware Approximate
Mon 01:44:15 PM 39.8474 -74.8653 47° Northeast  Level FlightAware Approximate
Mon 01:45:15 PM 39.8359 -74.9349 47° Northeast  Level FlightAware Approximate
Mon 01:46:15 PM 39.8244 -75.0045 48° Northeast  Level FlightAware Approximate
Mon 01:47:15 PM 39.8128 -75.0740 49° Northeast  Level FlightAware Approximate
Mon 01:48:15 PM 39.8012 -75.1436 49° Northeast  Level FlightAware Approximate
Mon 01:49:15 PM 39.7895 -75.2131 50° Northeast  Level FlightAware Approximate
Mon 01:50:15 PM 39.8425 -75.2309 51° Northeast  Level Estimated
Mon 01:51:15 PM 40.7672 -72.5558 332° Northwest  Level FlightAware Approximate
Mon 01:52:15 PM 40.7443 -72.6214 338° Northwest  Level FlightAware Approximate
Mon 01:53:15 PM 40.7214 -72.6869 344° North  Level FlightAware Approximate
Mon 01:54:15 PM 40.6985 -72.7524 350° North  Level FlightAware Approximate
Mon 01:55:15 PM 40.6755 -72.8178 355° North  Level FlightAware Approximate
Mon 01:56:15 PM 40.6525 -72.8832 360° North  Level FlightAware Approximate
Mon 01:57:15 PM 40.6294 -72.9485 North  Level FlightAware Approximate
Mon 01:58:15 PM 40.6063 -73.0138 North  Level FlightAware Approximate
Mon 01:59:15 PM 40.5832 -73.0790 13° North  Level FlightAware Approximate
Mon 02:00:15 PM 40.5601 -73.1442 16° North  Level FlightAware Approximate
Mon 02:01:15 PM 40.5369 -73.2094 19° North  Level FlightAware Approximate
Mon 02:02:15 PM 40.5136 -73.2745 22° Northeast  Level FlightAware Approximate
Mon 02:03:15 PM 40.4904 -73.3395 25° Northeast  Level FlightAware Approximate
Mon 02:04:15 PM 40.4671 -73.4045 27° Northeast  Level FlightAware Approximate
Mon 02:05:15 PM 40.4437 -73.4695 29° Northeast  Level FlightAware Approximate
Mon 02:06:15 PM 40.4203 -73.5344 31° Northeast  Level FlightAware Approximate
Mon 02:07:15 PM 40.4071 -73.5712 32° Northeast  Level FlightAware Approximate
Mon 02:08:15 PM 40.3938 -73.6079 33° Northeast  Level FlightAware Approximate
Mon 02:09:15 PM 40.3805 -73.6446 34° Northeast  Level FlightAware Approximate
Mon 02:10:15 PM 40.3672 -73.6813 35° Northeast  Level FlightAware Approximate
Mon 02:11:15 PM 40.3539 -73.7180 35° Northeast  Level FlightAware Approximate
Mon 02:12:15 PM 40.3406 -73.7547 36° Northeast  Level FlightAware Approximate
Mon 02:13:15 PM 40.3273 -73.7914 37° Northeast  Level FlightAware Approximate
Mon 02:14:15 PM 40.3139 -73.8280 38° Northeast  Level FlightAware Approximate
Mon 02:15:15 PM 40.3006 -73.8647 38° Northeast  Level FlightAware Approximate
Mon 02:16:15 PM 40.2872 -73.9013 39° Northeast  Level FlightAware Approximate
Mon 02:17:15 PM 40.2739 -73.9379 39° Northeast  Level FlightAware Approximate
Mon 02:18:15 PM 40.2605 -73.9745 40° Northeast  Level FlightAware Approximate
Mon 02:19:15 PM 40.2471 -74.0111 41° Northeast  Level FlightAware Approximate
Mon 02:20:15 PM 40.2337 -74.0476 41° Northeast  Level FlightAware Approximate
Mon 02:21:15 PM 40.2202 -74.0842 42° Northeast  Level FlightAware Approximate
Mon 02:22:15 PM 40.2068 -74.1207 42° Northeast  Level FlightAware Approximate
Mon 02:23:15 PM 40.1933 -74.1575 42° Northeast  Level FlightAware Approximate
Mon 02:24:15 PM 40.1797 -74.1944 43° Northeast  Level FlightAware Approximate
Mon 02:25:15 PM 40.1661 -74.2312 43° Northeast  Level FlightAware Approximate
Mon 02:26:15 PM 40.1525 -74.2680 44° Northeast  Level FlightAware Approximate
Mon 02:27:15 PM 40.1287 -74.3324 44° Northeast  Level FlightAware Approximate
Mon 02:28:15 PM 40.1048 -74.3967 45° Northeast  Level FlightAware Approximate
Mon 02:29:15 PM 40.0809 -74.4609 46° Northeast  Level FlightAware Approximate
Mon 02:30:15 PM 40.0570 -74.5252 46° Northeast  Level FlightAware Approximate
Mon 02:31:15 PM 40.0331 -74.5893 47° Northeast  Level FlightAware Approximate
Mon 02:32:15 PM 40.0090 -74.6535 47° Northeast  Level FlightAware Approximate
Mon 02:33:15 PM 39.9850 -74.7176 48° Northeast  Level FlightAware Approximate
Mon 02:34:15 PM 39.9609 -74.7816 48° Northeast  Level FlightAware Approximate
Mon 02:35:15 PM 39.9368 -74.8456 48° Northeast  Level FlightAware Approximate
Mon 02:36:15 PM 39.9127 -74.9096 49° Northeast  Level FlightAware Approximate
Mon 02:37:15 PM 39.8885 -74.9735 49° Northeast  Level FlightAware Approximate
Mon 02:38:15 PM 39.8643 -75.0374 49° Northeast  Level FlightAware Approximate
Mon 02:39:15 PM 39.8401 -75.1012 50° Northeast  Level FlightAware Approximate
Mon 02:40:15 PM 39.8158 -75.1650 50° Northeast  Level FlightAware Approximate
Mon 02:41:15 PM 39.8538 -75.2161 51° Northeast  Level Estimated
Mon 02:42:15 PM 40.6000 -72.6833 347° North  Level FlightAware Approximate
Mon 02:43:15 PM 40.5797 -72.7502 351° North  Level FlightAware Approximate
Mon 02:44:15 PM 40.5593 -72.8170 356° North  Level FlightAware Approximate
Mon 02:45:15 PM 40.5390 -72.8837 360° North  Level FlightAware Approximate
Mon 02:46:15 PM 40.5186 -72.9504 North  Level FlightAware Approximate
Mon 02:47:15 PM 40.4981 -73.0171 North  Level FlightAware Approximate
Mon 02:48:15 PM 40.4776 -73.0838 11° North  Level FlightAware Approximate
Mon 02:49:15 PM 40.4571 -73.1504 14° North  Level FlightAware Approximate
Mon 02:50:15 PM 40.4365 -73.2169 17° North  Level FlightAware Approximate
Mon 02:51:15 PM 40.4159 -73.2834 20° North  Level FlightAware Approximate
Mon 02:52:15 PM 40.3952 -73.3499 23° Northeast  Level FlightAware Approximate
Mon 02:53:15 PM 40.3745 -73.4163 25° Northeast  Level FlightAware Approximate
Mon 02:54:15 PM 40.3538 -73.4827 27° Northeast  Level FlightAware Approximate
Mon 02:55:15 PM 40.3330 -73.5491 29° Northeast  Level FlightAware Approximate
Mon 02:56:15 PM 40.3122 -73.6154 31° Northeast  Level FlightAware Approximate
Mon 02:57:15 PM 40.2914 -73.6817 32° Northeast  Level FlightAware Approximate
Mon 02:58:15 PM 40.2705 -73.7479 34° Northeast  Level FlightAware Approximate
Mon 02:59:15 PM 40.2496 -73.8141 35° Northeast  Level FlightAware Approximate
Mon 03:00:15 PM 40.2287 -73.8802 37° Northeast  Level FlightAware Approximate
Mon 03:01:15 PM 40.2077 -73.9463 38° Northeast  Level FlightAware Approximate
Mon 03:02:15 PM 40.1866 -74.0124 39° Northeast  Level FlightAware Approximate
Mon 03:03:15 PM 40.1656 -74.0784 40° Northeast  Level FlightAware Approximate
Mon 03:04:15 PM 40.1445 -74.1444 41° Northeast  Level FlightAware Approximate
Mon 03:05:15 PM 40.1233 -74.2104 42° Northeast  Level FlightAware Approximate
Mon 03:06:15 PM 40.1022 -74.2763 43° Northeast  Level FlightAware Approximate
Mon 03:07:15 PM 40.0810 -74.3421 43° Northeast  Level FlightAware Approximate
Mon 03:08:15 PM 40.0597 -74.4079 44° Northeast  Level FlightAware Approximate
Mon 03:09:15 PM 40.0384 -74.4737 45° Northeast  Level FlightAware Approximate
Mon 03:10:15 PM 40.0171 -74.5395 45° Northeast  Level FlightAware Approximate
Mon 03:11:15 PM 39.9957 -74.6051 46° Northeast  Level FlightAware Approximate
Mon 03:12:15 PM 39.9743 -74.6708 47° Northeast  Level FlightAware Approximate
Mon 03:13:15 PM 39.9529 -74.7364 47° Northeast  Level FlightAware Approximate
Mon 03:14:15 PM 39.9314 -74.8020 48° Northeast  Level FlightAware Approximate
Mon 03:15:15 PM 39.9099 -74.8675 48° Northeast  Level FlightAware Approximate
Mon 03:16:15 PM 39.8884 -74.9330 49° Northeast  Level FlightAware Approximate
Mon 03:17:15 PM 39.8668 -74.9985 49° Northeast  Level FlightAware Approximate
Mon 03:18:15 PM 39.8451 -75.0639 49° Northeast  Level FlightAware Approximate
Mon 03:19:15 PM 39.8235 -75.1292 50° Northeast  Level FlightAware Approximate
Mon 03:20:15 PM 39.8018 -75.1945 50° Northeast  Level FlightAware Approximate
Mon 03:21:15 PM 39.8506 -75.2266 51° Northeast  Level Estimated
Mon 03:22:15 PM 39.5745 -75.0991 45° Northeast  Level FlightAware Approximate
Mon 03:23:15 PM 39.6223 -75.1335 46° Northeast  Level FlightAware Approximate
Mon 03:24:15 PM 39.6701 -75.1680 47° Northeast  Level FlightAware Approximate
Mon 03:25:15 PM 39.7179 -75.2026 49° Northeast  Level FlightAware Approximate
Mon 03:26:15 PM 39.7656 -75.2372 50° Northeast  Level FlightAware Approximate
Mon 03:27:15 PM 39.8173 -75.2432 51° Northeast  Level FlightAware Approximate
Mon 03:28:15 PM 39.8720 -75.2409 52° Northeast  Level Estimated
Mon 03:29:15 PM 39.9266 -75.2373 53° Northeast  Level Estimated
Mon 03:30:15 PM 39.8720 -75.2409 52° Northeast  Level Estimated
Mon 03:31:15 PM 39.9266 -75.2373 53° Northeast  Level Estimated
Mon 03:32:15 PM 39.8720 -75.2409 52° Northeast  Level Estimated
Mon 03:33:15 PM 39.9266 -75.2373 53° Northeast  Level Estimated
Mon 03:34:15 PM 39.8667 -75.2333 52° Northeast  Level FlightAware Approximate
Mon 03:35:15 PM 39.9046 -75.2846 53° Northeast  Level Estimated
Mon 03:36:15 PM 39.8667 -75.2333 52° Northeast  Level FlightAware Approximate
Mon 03:37:15 PM 39.9046 -75.2846 53° Northeast  Level Estimated
Mon 03:37:50 PM 41.2333 -72.8833 159° South 123 142 1,500  Level New York TRACON
Mon 03:38:56 PM 41.2000 -72.8667 143° Southeast 132 152 3,100 1,476 Climbing New York TRACON
Mon 03:39:56 PM 41.1667 -72.8333 161° South 138 159 4,600 1,409 Climbing New York TRACON
Mon 03:40:51 PM 41.1389 -72.8206 149° Southeast 140 161 5,800 1,513 Climbing Boston Center
Mon 03:41:51 PM 41.1078 -72.7956 153° Southeast 140 161 7,500 1,600 Climbing Boston Center
Mon 03:42:51 PM 41.0744 -72.7733 151° Southeast 140 161 9,000 1,550 Climbing Boston Center
Mon 03:43:51 PM 41.0517 -72.7567 159° South 128 147 10,600 1,000 Climbing Boston Center
Mon 03:44:51 PM 41.0244 -72.7428 149° Southeast 109 125 11,000 200 Climbing Boston Center
Mon 03:45:51 PM 40.9892 -72.7150 154° Southeast 123 142 11,000  Level Boston Center
Mon 03:46:51 PM 40.9475 -72.6875 151° Southeast 147 169 11,000  Level Boston Center
Mon 03:47:51 PM 40.9058 -72.6569 155° Southeast 161 185 11,000  Level Boston Center
Mon 03:48:51 PM 40.8561 -72.6267 149° Southeast 176 203 11,000  Level Boston Center
Mon 03:49:51 PM 40.8144 -72.5936 152° Southeast 176 203 11,000 350 Level Boston Center
Mon 03:50:51 PM 40.7747 -72.5661 156° South 176 203 11,700 850 Climbing Boston Center
Mon 03:51:51 PM 40.7414 -72.5469 208° Southwest 157 181 12,700 900 Climbing Boston Center
Mon 03:52:51 PM 40.7144 -72.5661 227° Southwest 113 130 13,500 650 Climbing Boston Center
Mon 03:53:51 PM 40.6872 -72.6044 219° Southwest 120 138 14,000 250 Climbing Boston Center
Mon 03:54:51 PM 40.6517 -72.6425 223° Southwest 146 168 14,000  Level Boston Center
Mon 03:57:18 PM 40.5639 -72.7517 224° Southwest 181 208 14,000  Level New York Center
Mon 03:58:18 PM 40.5300 -72.7944 223° Southwest 181 208 14,000 51 Level New York Center
Mon 03:59:16 PM 40.4872 -72.8478 224° Southwest 187 215 14,100 51 Climbing New York Center
Mon 04:00:16 PM 40.4553 -72.8878 221° Southwest 187 215 14,100  Level New York Center
Mon 04:01:17 PM 40.4128 -72.9356 222° Southwest 192 221 14,100  Level New York Center
Mon 04:02:17 PM 40.3786 -72.9753 222° Southwest 186 214 14,100  Level New York Center
Mon 04:03:18 PM 40.3383 -73.0231 225° Southwest 186 214 14,100  Level New York Center
Mon 04:04:19 PM 40.3061 -73.0653 222° Southwest 186 214 14,100  Level New York Center
Mon 04:05:16 PM 40.2656 -73.1131 223° Southwest 186 214 14,100  Level New York Center
Mon 04:06:17 PM 40.2292 -73.1581 222° Southwest 191 220 14,100  Level New York Center
Mon 04:07:17 PM 40.1931 -73.2003 225° Southwest 186 214 14,100  Level New York Center
Mon 04:08:17 PM 40.1586 -73.2453 218° Southwest 186 214 14,100  Level New York Center
Mon 04:09:18 PM 40.1203 -73.2844 222° Southwest 186 214 14,100  Level New York Center
Mon 04:10:18 PM 40.0819 -73.3292 222° Southwest 186 214 14,100  Level New York Center

Login

Don't have an account? Register now (free) for customized features, flight alerts, and more!